Time;durP1;ratioP1;P1;durP2;ratioP2;P2;SDS_P1;SDS_P2;PMS_P1;PMS_P2;Temp;Humidity;BMP_temperature;BMP_pressure;BME280_temperature;BME280_humidity;BME280_pressure;Samples;Min_cycle;Max_cycle;Signal;HPM_P1;HPM_P2
2023/01/10 00:02:15;;;;;;;;;;;;;;;;;;5002630;28;19913;-76
2023/01/10 00:05:01;;;;;;;;;;;;;;;;;;5000940;28;19921;-76
2023/01/10 00:07:48;;;;;;;;;;;;;;;;;;4995406;28;19917;-79
2023/01/10 00:10:34;;;;;;;;;;;;;;;;;;5006618;28;19921;-76
2023/01/10 00:13:24;;;;;;;;;;;;;;;;;;5008377;28;19938;-76
2023/01/10 00:16:10;;;;;;;;;;;;;;;;;;4992151;28;19918;-75
2023/01/10 00:18:57;;;;;;;;;;;;;;;;;;4993962;28;20390;-76
2023/01/10 00:21:43;;;;;;;;;;;;;;;;;;5008095;28;19925;-76
2023/01/10 00:24:30;;;;;;;;;;;;;;;;;;5001447;28;19913;-75
2023/01/10 00:27:21;;;;;;;;;;;;;;;;;;5002653;28;20588;-77
2023/01/10 00:30:14;;;;;;;;;;;;;;;;;;5005250;28;19917;-75
2023/01/10 00:33:00;;;;;;;;;;;;;;;;;;5003437;28;19944;-76
2023/01/10 00:35:47;;;;;;;;;;;;;;;;;;5005389;28;19918;-75
2023/01/10 00:38:33;;;;;;;;;;;;;;;;;;5006290;28;19913;-76
2023/01/10 00:44:25;;;;;;;;;;;;;;;;;;5003563;28;19944;-75
2023/01/10 00:47:12;;;;;;;;;;;;;;;;;;4989814;28;19931;-77
2023/01/10 00:49:58;;;;;;;;;;;;;;;;;;5001003;28;19914;-77
2023/01/10 00:52:45;;;;;;;;;;;;;;;;;;5000665;28;19925;-78
2023/01/10 00:55:31;;;;;;;;;;;;;;;;;;5002107;28;19910;-76
2023/01/10 00:58:18;;;;;;;;;;;;;;;;;;5004161;28;19913;-77
2023/01/10 01:01:04;;;;;;;;;;;;;;;;;;4988227;28;20225;-76
2023/01/10 01:03:51;;;;;;;;;;;;;;;;;;5005658;28;19918;-75
2023/01/10 01:06:37;;;;;;;;;;;;;;;;;;5001329;28;19910;-76
2023/01/10 01:09:24;;;;;;;;;;;;;;;;;;5001581;28;19939;-76
2023/01/10 01:12:10;;;;;;;;;;;;;;;;;;4989752;28;19928;-77
2023/01/10 01:14:57;;;;;;;;;;;;;;;;;;5004070;28;20681;-75
2023/01/10 01:17:43;;;;;;;;;;;;;;;;;;5006208;28;19917;-77
2023/01/10 01:20:30;;;;;;;;;;;;;;;;;;4983721;28;19919;-76
2023/01/10 01:23:16;;;;;;;;;;;;;;;;;;5010196;28;20312;-78
2023/01/10 01:26:04;;;;;;;;;;;;;;;;;;5003420;28;19914;-74
2023/01/10 01:28:51;;;;;;;;;;;;;;;;;;5006454;28;19924;-78
2023/01/10 01:31:37;;;;;;;;;;;;;;;;;;5011402;28;19924;-76
2023/01/10 01:34:23;;;;;;;;;;;;;;;;;;5013836;28;19910;-76
2023/01/10 01:37:10;;;;;;;;;;;;;;;;;;5011290;28;19913;-74
2023/01/10 01:39:57;;;;;;;;;;;;;;;;;;5007074;28;19924;-76
2023/01/10 01:42:43;;;;;;;;;;;;;;;;;;5006508;28;19915;-77
2023/01/10 01:45:30;;;;;;;;;;;;;;;;;;4994173;28;19913;-76
2023/01/10 01:48:16;;;;;;;;;;;;;;;;;;5007335;28;19920;-80
2023/01/10 01:51:06;;;;;;;;;;;;;;;;;;4988158;28;19920;-76
2023/01/10 01:53:52;;;;;;;;;;;;;;;;;;5003502;28;19934;-76
2023/01/10 01:56:41;;;;;;;;;;;;;;;;;;4997351;28;19927;-76
2023/01/10 01:59:28;;;;;;;;;;;;;;;;;;4999088;28;19914;-78
2023/01/10 02:02:14;;;;;;;;;;;;;;;;;;5007171;28;20113;-79
2023/01/10 02:14:32;;;;;;;;;;;;;;;;;;5005221;28;19917;-78
2023/01/10 02:17:18;;;;;;;;;;;;;;;;;;4982433;28;19909;-75
2023/01/10 02:20:05;;;;;;;;;;;;;;;;;;5004295;28;19924;-74
2023/01/10 02:22:51;;;;;;;;;;;;;;;;;;5002950;28;20384;-75
2023/01/10 02:25:38;;;;;;;;;;;;;;;;;;5001515;28;19917;-75
2023/01/10 02:28:24;;;;;;;;;;;;;;;;;;4997626;28;19921;-75
2023/01/10 02:31:11;;;;;;;;;;;;;;;;;;4999596;28;20579;-75
2023/01/10 02:33:57;;;;;;;;;;;;;;;;;;5002430;28;19922;-75
2023/01/10 02:36:44;;;;;;;;;;;;;;;;;;4999855;28;19915;-75
2023/01/10 02:39:30;;;;;;;;;;;;;;;;;;5003267;28;20266;-74
2023/01/10 02:42:17;;;;;;;;;;;;;;;;;;5003212;28;19910;-74
2023/01/10 02:45:03;;;;;;;;;;;;;;;;;;5000558;28;19920;-74
2023/01/10 02:47:50;;;;;;;;;;;;;;;;;;4996648;28;20277;-74
2023/01/10 02:50:36;;;;;;;;;;;;;;;;;;4993634;28;19924;-75
2023/01/10 02:53:23;;;;;;;;;;;;;;;;;;5000183;28;19929;-75
2023/01/10 02:56:09;;;;;;;;;;;;;;;;;;5000314;28;19933;-75
2023/01/10 02:58:56;;;;;;;;;;;;;;;;;;5003339;28;19921;-75
2023/01/10 03:01:42;;;;;;;;;;;;;;;;;;5004961;28;19921;-75
2023/01/10 03:04:29;;;;;;;;;;;;;;;;;;5004912;28;20364;-74
2023/01/10 03:07:17;;;;;;;;;;;;;;;;;;4998117;28;19921;-75
2023/01/10 03:10:03;;;;;;;;;;;;;;;;;;5002103;28;20365;-74
2023/01/10 03:12:50;;;;;;;;;;;;;;;;;;5008888;28;19922;-75
2023/01/10 03:15:36;;;;;;;;;;;;;;;;;;5003380;28;19921;-74
2023/01/10 03:18:23;;;;;;;;;;;;;;;;;;5001198;28;19920;-75
2023/01/10 03:21:09;;;;;;;;;;;;;;;;;;5000597;28;20297;-75
2023/01/10 03:23:56;;;;;;;;;;;;;;;;;;5001594;28;19913;-75
2023/01/10 03:26:42;;;;;;;;;;;;;;;;;;4998241;28;20454;-75
2023/01/10 03:29:29;;;;;;;;;;;;;;;;;;5001032;28;20017;-75
2023/01/10 03:32:15;;;;;;;;;;;;;;;;;;5007153;28;19917;-75
2023/01/10 03:35:02;;;;;;;;;;;;;;;;;;5000002;28;19925;-75
2023/01/10 03:37:49;;;;;;;;;;;;;;;;;;5001856;28;19919;-75
2023/01/10 03:40:35;;;;;;;;;;;;;;;;;;4998080;28;19921;-75
2023/01/10 03:46:27;;;;;;;;;;;;;;;;;;5000739;28;19921;-74
2023/01/10 03:49:13;;;;;;;;;;;;;;;;;;5010248;28;19916;-75
2023/01/10 03:52:00;;;;;;;;;;;;;;;;;;5011683;28;19945;-75
2023/01/10 03:54:46;;;;;;;;;;;;;;;;;;4988516;28;19922;-75
2023/01/10 03:57:33;;;;;;;;;;;;;;;;;;4999260;28;19928;-75
2023/01/10 04:00:19;;;;;;;;;;;;;;;;;;5000345;28;20332;-75
2023/01/10 04:03:08;;;;;;;;;;;;;;;;;;5008525;28;19913;-77
2023/01/10 04:05:55;;;;;;;;;;;;;;;;;;5000922;28;20373;-76
2023/01/10 04:08:41;;;;;;;;;;;;;;;;;;5000525;28;20588;-75
2023/01/10 04:11:27;;;;;;;;;;;;;;;;;;5002912;28;19913;-76
2023/01/10 04:14:14;;;;;;;;;;;;;;;;;;5006912;28;19917;-76
2023/01/10 04:17:00;;;;;;;;;;;;;;;;;;4997227;28;19918;-76
2023/01/10 04:19:47;;;;;;;;;;;;;;;;;;5005426;28;20388;-76
2023/01/10 04:22:33;;;;;;;;;;;;;;;;;;4988009;28;19909;-76
2023/01/10 04:25:20;;;;;;;;;;;;;;;;;;5005034;28;19914;-76
2023/01/10 04:28:06;;;;;;;;;;;;;;;;;;5005849;28;19917;-76
2023/01/10 04:30:53;;;;;;;;;;;;;;;;;;5005496;28;19921;-76
2023/01/10 04:33:40;;;;;;;;;;;;;;;;;;5013529;28;19917;-75
2023/01/10 04:36:26;;;;;;;;;;;;;;;;;;5003228;28;19917;-75
2023/01/10 04:39:13;;;;;;;;;;;;;;;;;;5003646;28;20297;-77
2023/01/10 04:41:59;;;;;;;;;;;;;;;;;;5005316;28;19921;-76
2023/01/10 04:44:46;;;;;;;;;;;;;;;;;;5018611;28;19922;-75
2023/01/10 04:47:32;;;;;;;;;;;;;;;;;;5011135;28;19917;-76
2023/01/10 04:50:19;;;;;;;;;;;;;;;;;;5006561;28;19914;-75
2023/01/10 04:53:05;;;;;;;;;;;;;;;;;;5007784;28;19928;-76
2023/01/10 04:55:51;;;;;;;;;;;;;;;;;;5008246;28;19917;-76
2023/01/10 04:58:38;;;;;;;;;;;;;;;;;;5004756;28;19913;-75
2023/01/10 05:01:24;;;;;;;;;;;;;;;;;;4992404;28;19917;-78
2023/01/10 05:04:11;;;;;;;;;;;;;;;;;;5004703;28;19924;-75
2023/01/10 05:06:57;;;;;;;;;;;;;;;;;;5000332;28;19925;-75
2023/01/10 05:09:44;;;;;;;;;;;;;;;;;;5004500;28;19914;-75
2023/01/10 05:12:30;;;;;;;;;;;;;;;;;;5000190;28;19921;-76
2023/01/10 05:15:19;;;;;;;;;;;;;;;;;;5005012;28;20544;-76
2023/01/10 05:18:06;;;;;;;;;;;;;;;;;;5006383;28;19920;-75
2023/01/10 05:20:52;;;;;;;;;;;;;;;;;;5009731;28;19913;-76
2023/01/10 05:23:39;;;;;;;;;;;;;;;;;;5005401;28;19913;-76
2023/01/10 05:26:25;;;;;;;;;;;;;;;;;;5008022;28;19910;-76
2023/01/10 05:29:13;;;;;;;;;;;;;;;;;;5003047;28;19913;-76
2023/01/10 05:31:59;;;;;;;;;;;;;;;;;;4998641;28;19917;-75
2023/01/10 05:34:46;;;;;;;;;;;;;;;;;;5006303;28;20020;-76
2023/01/10 05:37:32;;;;;;;;;;;;;;;;;;5006776;28;19950;-76
2023/01/10 05:40:19;;;;;;;;;;;;;;;;;;5006955;28;20369;-77
2023/01/10 05:43:05;;;;;;;;;;;;;;;;;;4998505;28;19916;-77
2023/01/10 05:45:52;;;;;;;;;;;;;;;;;;4998449;28;19926;-76
2023/01/10 05:48:38;;;;;;;;;;;;;;;;;;4999917;28;19936;-75
2023/01/10 05:51:25;;;;;;;;;;;;;;;;;;5003539;28;19944;-75
2023/01/10 05:54:11;;;;;;;;;;;;;;;;;;5004215;28;19925;-74
2023/01/10 05:56:58;;;;;;;;;;;;;;;;;;5004752;28;20314;-75
2023/01/10 05:59:44;;;;;;;;;;;;;;;;;;5004932;28;19917;-75
2023/01/10 06:02:31;;;;;;;;;;;;;;;;;;5000984;28;20404;-74
2023/01/10 06:05:17;;;;;;;;;;;;;;;;;;5004180;28;19913;-75
2023/01/10 06:08:04;;;;;;;;;;;;;;;;;;5001630;28;19929;-75
2023/01/10 06:10:50;;;;;;;;;;;;;;;;;;5011825;28;19913;-74
2023/01/10 06:13:37;;;;;;;;;;;;;;;;;;5005509;28;19930;-75
2023/01/10 06:16:23;;;;;;;;;;;;;;;;;;5004977;28;19913;-76
2023/01/10 06:19:10;;;;;;;;;;;;;;;;;;5000676;28;19917;-76
2023/01/10 06:21:56;;;;;;;;;;;;;;;;;;5000475;28;20336;-75
2023/01/10 06:24:43;;;;;;;;;;;;;;;;;;5000273;28;19913;-75
2023/01/10 06:27:29;;;;;;;;;;;;;;;;;;5002980;28;19924;-77
2023/01/10 06:30:16;;;;;;;;;;;;;;;;;;5000473;28;19914;-77
2023/01/10 06:33:02;;;;;;;;;;;;;;;;;;5000923;28;19963;-77
2023/01/10 06:35:49;;;;;;;;;;;;;;;;;;5003134;28;20695;-77
2023/01/10 06:38:35;;;;;;;;;;;;;;;;;;5002358;28;19921;-78
2023/01/10 06:41:22;;;;;;;;;;;;;;;;;;5004628;28;20079;-78
2023/01/10 06:44:08;;;;;;;;;;;;;;;;;;5003810;28;19920;-78
2023/01/10 06:46:55;;;;;;;;;;;;;;;;;;5002071;28;19936;-78
2023/01/10 06:49:41;;;;;;;;;;;;;;;;;;5005051;28;19928;-78
2023/01/10 06:52:27;;;;;;;;;;;;;;;;;;5006231;28;19925;-77
2023/01/10 06:55:14;;;;;;;;;;;;;;;;;;5002841;28;19929;-82
2023/01/10 06:58:00;;;;;;;;;;;;;;;;;;4994454;28;19913;-77
2023/01/10 07:00:47;;;;;;;;;;;;;;;;;;4988583;28;20004;-78
2023/01/10 07:03:33;;;;;;;;;;;;;;;;;;4999704;28;19920;-78
2023/01/10 07:06:20;;;;;;;;;;;;;;;;;;5002730;28;19916;-77
2023/01/10 07:09:06;;;;;;;;;;;;;;;;;;5002232;28;19913;-77
2023/01/10 07:11:53;;;;;;;;;;;;;;;;;;5002112;28;19910;-76
2023/01/10 07:14:39;;;;;;;;;;;;;;;;;;4999130;28;19964;-77
2023/01/10 07:17:26;;;;;;;;;;;;;;;;;;5001045;28;19941;-77
2023/01/10 07:20:12;;;;;;;;;;;;;;;;;;5001879;28;19913;-77
2023/01/10 07:22:59;;;;;;;;;;;;;;;;;;5008698;28;19913;-83
2023/01/10 07:25:45;;;;;;;;;;;;;;;;;;5007885;28;19916;-80
2023/01/10 07:28:33;;;;;;;;;;;;;;;;;;5006483;28;19940;-80
2023/01/10 07:31:21;;;;;;;;;;;;;;;;;;5004898;28;20285;-82
2023/01/10 07:34:08;;;;;;;;;;;;;;;;;;5007408;28;19956;-80
2023/01/10 07:36:54;;;;;;;;;;;;;;;;;;5012967;28;20690;-81
2023/01/10 07:39:41;;;;;;;;;;;;;;;;;;5006070;28;19946;-80
2023/01/10 07:42:27;;;;;;;;;;;;;;;;;;5008326;28;19917;-80
2023/01/10 07:45:14;;;;;;;;;;;;;;;;;;5012453;28;20340;-80
2023/01/10 07:48:00;;;;;;;;;;;;;;;;;;5006496;28;19920;-81
2023/01/10 07:50:47;;;;;;;;;;;;;;;;;;5005008;28;19920;-80
2023/01/10 07:53:33;;;;;;;;;;;;;;;;;;5006670;28;19926;-80
2023/01/10 07:56:20;;;;;;;;;;;;;;;;;;5009150;28;19913;-85
2023/01/10 07:59:06;;;;;;;;;;;;;;;;;;5024507;28;19927;-84
2023/01/10 08:01:53;;;;;;;;;;;;;;;;;;5028918;28;19920;-86
2023/01/10 08:04:39;;;;;;;;;;;;;;;;;;5031129;28;19954;-80
2023/01/10 08:07:25;;;;;;;;;;;;;;;;;;5021270;28;19918;-82
2023/01/10 08:10:12;;;;;;;;;;;;;;;;;;5006336;28;19913;-82
2023/01/10 08:12:59;;;;;;;;;;;;;;;;;;4998654;28;20288;-82
2023/01/10 08:15:46;;;;;;;;;;;;;;;;;;5014185;28;19924;-82
2023/01/10 08:18:32;;;;;;;;;;;;;;;;;;5004869;28;19932;-82
2023/01/10 08:21:19;;;;;;;;;;;;;;;;;;5007486;28;20425;-82
2023/01/10 08:24:05;;;;;;;;;;;;;;;;;;5006088;28;19913;-80
2023/01/10 08:26:51;;;;;;;;;;;;;;;;;;5003927;28;19921;-82
2023/01/10 08:29:38;;;;;;;;;;;;;;;;;;5012996;28;20217;-84
2023/01/10 08:32:24;;;;;;;;;;;;;;;;;;5009321;28;19932;-83
2023/01/10 08:35:11;;;;;;;;;;;;;;;;;;4995391;28;20296;-80
2023/01/10 08:37:58;;;;;;;;;;;;;;;;;;5007197;28;19913;-85
2023/01/10 08:40:45;;;;;;;;;;;;;;;;;;5002870;28;19910;-83
2023/01/10 08:43:31;;;;;;;;;;;;;;;;;;5004751;28;19928;-82
2023/01/10 08:46:19;;;;;;;;;;;;;;;;;;5006679;28;19963;-83
2023/01/10 08:49:05;;;;;;;;;;;;;;;;;;5004076;28;19913;-82
2023/01/10 08:51:52;;;;;;;;;;;;;;;;;;5002991;28;20690;-83
2023/01/10 08:54:38;;;;;;;;;;;;;;;;;;5006231;28;19943;-83
2023/01/10 08:57:24;;;;;;;;;;;;;;;;;;5004290;28;20381;-83
2023/01/10 09:00:12;;;;;;;;;;;;;;;;;;5006536;28;19920;-84
2023/01/10 09:02:58;;;;;;;;;;;;;;;;;;5008210;28;19920;-82
2023/01/10 09:05:44;;;;;;;;;;;;;;;;;;5005933;28;19936;-83
2023/01/10 09:08:31;;;;;;;;;;;;;;;;;;5004027;28;19913;-82
2023/01/10 09:11:17;;;;;;;;;;;;;;;;;;5010469;28;19913;-82
2023/01/10 09:14:06;;;;;;;;;;;;;;;;;;5004463;28;19932;-85
2023/01/10 09:16:52;;;;;;;;;;;;;;;;;;5001540;28;20764;-85
2023/01/10 09:19:39;;;;;;;;;;;;;;;;;;5006492;28;19916;-84
2023/01/10 09:22:26;;;;;;;;;;;;;;;;;;5006566;28;19913;-83
2023/01/10 09:25:12;;;;;;;;;;;;;;;;;;5004900;28;20332;-83
2023/01/10 09:27:59;;;;;;;;;;;;;;;;;;5005837;28;19917;-83
2023/01/10 09:30:45;;;;;;;;;;;;;;;;;;5006712;28;19921;-84
2023/01/10 09:33:32;;;;;;;;;;;;;;;;;;5008262;28;20431;-83
2023/01/10 09:36:18;;;;;;;;;;;;;;;;;;5008974;28;19921;-86
2023/01/10 09:39:05;;;;;;;;;;;;;;;;;;5004755;28;19914;-82
2023/01/10 09:41:51;;;;;;;;;;;;;;;;;;5008242;28;19914;-83
2023/01/10 09:44:38;;;;;;;;;;;;;;;;;;5007553;28;19919;-83
2023/01/10 09:47:24;;;;;;;;;;;;;;;;;;5013269;28;19983;-83
2023/01/10 09:50:11;;;;;;;;;;;;;;;;;;5001872;28;19919;-82
2023/01/10 09:52:57;;;;;;;;;;;;;;;;;;5005066;28;20401;-83
2023/01/10 09:55:44;;;;;;;;;;;;;;;;;;5002562;28;20011;-83
2023/01/10 09:58:30;;;;;;;;;;;;;;;;;;5011447;28;19909;-83
2023/01/10 10:01:17;;;;;;;;;;;;;;;;;;5004585;28;19913;-85
2023/01/10 10:04:03;;;;;;;;;;;;;;;;;;5004967;28;19913;-82
2023/01/10 10:06:50;;;;;;;;;;;;;;;;;;5006471;28;19913;-82
2023/01/10 10:09:36;;;;;;;;;;;;;;;;;;5008983;28;19913;-82
2023/01/10 10:12:23;;;;;;;;;;;;;;;;;;5001074;28;19917;-82
2023/01/10 10:15:09;;;;;;;;;;;;;;;;;;5007753;28;19928;-81
2023/01/10 10:17:56;;;;;;;;;;;;;;;;;;4994541;28;20371;-81
2023/01/10 10:20:42;;;;;;;;;;;;;;;;;;4996604;28;19921;-82
2023/01/10 10:23:29;;;;;;;;;;;;;;;;;;5010222;28;19909;-82
2023/01/10 10:26:15;;;;;;;;;;;;;;;;;;5009259;28;19917;-82
2023/01/10 10:29:02;;;;;;;;;;;;;;;;;;5005442;28;20412;-82
2023/01/10 10:31:48;;;;;;;;;;;;;;;;;;5009546;28;20016;-82
2023/01/10 10:34:36;;;;;;;;;;;;;;;;;;5009093;28;20296;-82
2023/01/10 10:37:22;;;;;;;;;;;;;;;;;;5008878;28;19920;-85
2023/01/10 10:40:09;;;;;;;;;;;;;;;;;;5004729;28;19916;-82
2023/01/10 10:42:55;;;;;;;;;;;;;;;;;;5003013;28;19909;-82
2023/01/10 10:45:42;;;;;;;;;;;;;;;;;;5001069;28;20304;-81
2023/01/10 10:48:28;;;;;;;;;;;;;;;;;;5007646;28;19909;-82
2023/01/10 10:51:15;;;;;;;;;;;;;;;;;;5000920;28;19952;-82
2023/01/10 10:54:01;;;;;;;;;;;;;;;;;;4998289;28;19926;-83
2023/01/10 10:56:48;;;;;;;;;;;;;;;;;;5008089;28;19914;-82
2023/01/10 10:59:35;;;;;;;;;;;;;;;;;;5000596;28;20420;-83
2023/01/10 11:02:23;;;;;;;;;;;;;;;;;;5003712;28;20475;-82
2023/01/10 11:05:10;;;;;;;;;;;;;;;;;;5007714;28;19910;-82
2023/01/10 11:07:56;;;;;;;;;;;;;;;;;;5003884;28;19944;-85
2023/01/10 11:10:42;;;;;;;;;;;;;;;;;;5003728;28;19918;-81
2023/01/10 11:13:29;;;;;;;;;;;;;;;;;;5020712;28;19930;-82
2023/01/10 11:16:15;;;;;;;;;;;;;;;;;;5026445;28;19936;-87
2023/01/10 11:19:02;;;;;;;;;;;;;;;;;;5035019;28;19898;-86
2023/01/10 11:21:48;;;;;;;;;;;;;;;;;;5015671;28;20384;-83
2023/01/10 11:24:35;;;;;;;;;;;;;;;;;;5008373;28;20309;-83
2023/01/10 11:27:21;;;;;;;;;;;;;;;;;;5006939;28;19910;-83
2023/01/10 11:30:08;;;;;;;;;;;;;;;;;;5004839;28;19913;-84
2023/01/10 11:32:54;;;;;;;;;;;;;;;;;;5006714;28;19920;-83
2023/01/10 11:35:41;;;;;;;;;;;;;;;;;;5004095;28;20607;-83
2023/01/10 11:38:30;;;;;;;;;;;;;;;;;;5005251;28;19921;-83
2023/01/10 11:41:17;;;;;;;;;;;;;;;;;;4999001;28;19913;-82
2023/01/10 11:44:03;;;;;;;;;;;;;;;;;;5005426;28;19918;-83
2023/01/10 11:46:50;;;;;;;;;;;;;;;;;;5008439;28;19914;-83
2023/01/10 11:49:36;;;;;;;;;;;;;;;;;;5003811;28;19909;-84
2023/01/10 11:52:23;;;;;;;;;;;;;;;;;;5011324;28;19925;-82
2023/01/10 11:55:09;;;;;;;;;;;;;;;;;;5007274;28;19925;-83
2023/01/10 11:57:56;;;;;;;;;;;;;;;;;;4988172;28;19940;-82
2023/01/10 12:00:42;;;;;;;;;;;;;;;;;;5001876;28;19918;-82
2023/01/10 12:03:29;;;;;;;;;;;;;;;;;;5007654;28;19923;-81
2023/01/10 12:06:15;;;;;;;;;;;;;;;;;;5009783;28;19921;-81
2023/01/10 12:09:02;;;;;;;;;;;;;;;;;;5004617;28;19918;-81
2023/01/10 12:11:48;;;;;;;;;;;;;;;;;;5005778;28;20444;-82
2023/01/10 12:14:35;;;;;;;;;;;;;;;;;;5003555;28;19928;-82
2023/01/10 12:17:21;;;;;;;;;;;;;;;;;;5006958;28;19928;-82
2023/01/10 12:20:08;;;;;;;;;;;;;;;;;;5005142;28;19913;-81
2023/01/10 12:22:54;;;;;;;;;;;;;;;;;;5007577;28;19913;-81
2023/01/10 12:25:40;;;;;;;;;;;;;;;;;;5004487;28;19923;-82
2023/01/10 12:28:27;;;;;;;;;;;;;;;;;;5001633;28;19925;-81
2023/01/10 12:31:14;;;;;;;;;;;;;;;;;;5007796;28;19929;-82
2023/01/10 12:34:00;;;;;;;;;;;;;;;;;;5008871;28;20291;-84
2023/01/10 12:36:47;;;;;;;;;;;;;;;;;;5003345;28;19909;-81
2023/01/10 12:39:33;;;;;;;;;;;;;;;;;;5009488;28;19923;-82
2023/01/10 12:45:25;;;;;;;;;;;;;;;;;;5008129;28;20242;-80
2023/01/10 12:48:12;;;;;;;;;;;;;;;;;;4992777;28;19922;-81
2023/01/10 12:50:58;;;;;;;;;;;;;;;;;;5011516;28;19940;-80
2023/01/10 12:53:45;;;;;;;;;;;;;;;;;;5006907;28;19925;-81
2023/01/10 12:56:31;;;;;;;;;;;;;;;;;;5010766;28;20404;-82
2023/01/10 12:59:19;;;;;;;;;;;;;;;;;;5012176;28;19924;-81
2023/01/10 13:02:05;;;;;;;;;;;;;;;;;;5003266;28;19913;-81
2023/01/10 13:04:52;;;;;;;;;;;;;;;;;;5007773;28;19917;-81
2023/01/10 13:07:38;;;;;;;;;;;;;;;;;;5004591;28;19916;-82
2023/01/10 13:10:25;;;;;;;;;;;;;;;;;;5018075;28;20490;-81
2023/01/10 13:13:11;;;;;;;;;;;;;;;;;;5010829;28;20630;-81
2023/01/10 13:15:58;;;;;;;;;;;;;;;;;;5007095;28;19921;-82
2023/01/10 13:18:44;;;;;;;;;;;;;;;;;;5003778;28;19925;-81
2023/01/10 13:21:31;;;;;;;;;;;;;;;;;;4989525;28;19909;-82
2023/01/10 13:24:17;;;;;;;;;;;;;;;;;;5008877;28;20047;-81
2023/01/10 13:27:04;;;;;;;;;;;;;;;;;;5007849;28;19920;-83
2023/01/10 13:29:51;;;;;;;;;;;;;;;;;;5010507;28;19936;-81
2023/01/10 13:32:37;;;;;;;;;;;;;;;;;;5010223;28;19928;-82
2023/01/10 13:35:27;;;;;;;;;;;;;;;;;;5003671;28;19925;-81
2023/01/10 13:38:13;;;;;;;;;;;;;;;;;;5007043;28;20556;-82
2023/01/10 13:41:00;;;;;;;;;;;;;;;;;;5016384;28;19913;-82
2023/01/10 13:43:47;;;;;;;;;;;;;;;;;;5006862;28;19918;-85
2023/01/10 13:46:33;;;;;;;;;;;;;;;;;;5005125;28;19948;-82
2023/01/10 13:49:20;;;;;;;;;;;;;;;;;;5000725;28;19921;-82
2023/01/10 13:52:06;;;;;;;;;;;;;;;;;;5001116;28;19948;-82
2023/01/10 13:54:53;;;;;;;;;;;;;;;;;;5009750;28;20401;-83
2023/01/10 13:57:39;;;;;;;;;;;;;;;;;;5005744;28;19913;-83
2023/01/10 14:03:31;;;;;;;;;;;;;;;;;;5007199;28;19924;-81
2023/01/10 14:06:17;;;;;;;;;;;;;;;;;;5008590;28;19910;-81
2023/01/10 14:09:04;;;;;;;;;;;;;;;;;;5005550;28;19917;-81
2023/01/10 14:11:50;;;;;;;;;;;;;;;;;;5000609;28;19917;-81
2023/01/10 14:14:38;;;;;;;;;;;;;;;;;;5004282;28;20297;-81
2023/01/10 14:17:24;;;;;;;;;;;;;;;;;;5010572;28;19917;-83
2023/01/10 14:20:11;;;;;;;;;;;;;;;;;;5008745;28;19924;-82
2023/01/10 14:22:57;;;;;;;;;;;;;;;;;;5007675;28;20443;-83
2023/01/10 14:25:44;;;;;;;;;;;;;;;;;;5005184;28;20510;-83
2023/01/10 14:28:30;;;;;;;;;;;;;;;;;;5035086;28;19923;-84
2023/01/10 14:31:17;;;;;;;;;;;;;;;;;;5033718;28;19901;-84
2023/01/10 14:34:04;;;;;;;;;;;;;;;;;;5028561;28;19944;-79
2023/01/10 14:36:51;;;;;;;;;;;;;;;;;;5006151;28;19924;-78
2023/01/10 14:39:37;;;;;;;;;;;;;;;;;;5005294;28;20261;-78
2023/01/10 14:42:24;;;;;;;;;;;;;;;;;;5008035;28;19920;-77
2023/01/10 14:45:11;;;;;;;;;;;;;;;;;;5008517;28;19914;-78
2023/01/10 14:47:57;;;;;;;;;;;;;;;;;;5003039;28;20373;-79
2023/01/10 14:50:44;;;;;;;;;;;;;;;;;;5013560;28;19913;-78
2023/01/10 14:53:30;;;;;;;;;;;;;;;;;;5001207;28;20435;-79
2023/01/10 14:56:17;;;;;;;;;;;;;;;;;;5002252;28;19917;-79
2023/01/10 14:59:03;;;;;;;;;;;;;;;;;;4997152;28;19913;-78
2023/01/10 15:01:49;;;;;;;;;;;;;;;;;;5007163;28;20365;-79
2023/01/10 15:04:37;;;;;;;;;;;;;;;;;;4996960;28;19925;-81
2023/01/10 15:07:24;;;;;;;;;;;;;;;;;;4999005;28;20369;-79
2023/01/10 15:10:10;;;;;;;;;;;;;;;;;;5000304;28;19913;-79
2023/01/10 15:12:57;;;;;;;;;;;;;;;;;;5001839;28;19917;-79
2023/01/10 15:15:43;;;;;;;;;;;;;;;;;;5002875;28;20377;-80
2023/01/10 15:18:32;;;;;;;;;;;;;;;;;;5003102;28;19910;-77
2023/01/10 15:21:20;;;;;;;;;;;;;;;;;;5004842;28;19920;-77
2023/01/10 15:24:07;;;;;;;;;;;;;;;;;;5000308;28;19923;-74
2023/01/10 15:26:54;;;;;;;;;;;;;;;;;;4999670;28;19924;-74
2023/01/10 15:29:43;;;;;;;;;;;;;;;;;;4998042;28;19916;-75
2023/01/10 15:32:30;;;;;;;;;;;;;;;;;;5003070;28;19914;-76
2023/01/10 15:35:16;;;;;;;;;;;;;;;;;;5000258;28;19921;-75
2023/01/10 15:38:03;;;;;;;;;;;;;;;;;;5003930;28;19924;-75
2023/01/10 15:40:49;;;;;;;;;;;;;;;;;;5000980;28;19928;-75
2023/01/10 15:43:36;;;;;;;;;;;;;;;;;;5006467;28;19929;-75
2023/01/10 15:46:22;;;;;;;;;;;;;;;;;;5009389;28;19992;-75
2023/01/10 15:49:09;;;;;;;;;;;;;;;;;;5010448;28;20593;-75
2023/01/10 15:51:57;;;;;;;;;;;;;;;;;;5005661;28;20431;-75
2023/01/10 15:54:43;;;;;;;;;;;;;;;;;;4992461;28;20284;-76
2023/01/10 15:57:31;;;;;;;;;;;;;;;;;;5005574;28;19914;-75
2023/01/10 16:00:18;;;;;;;;;;;;;;;;;;5002511;28;19910;-76
2023/01/10 16:03:04;;;;;;;;;;;;;;;;;;5004731;28;19909;-75
2023/01/10 16:05:53;;;;;;;;;;;;;;;;;;5008462;28;19913;-76
2023/01/10 16:08:40;;;;;;;;;;;;;;;;;;5006450;28;19914;-76
2023/01/10 16:14:32;;;;;;;;;;;;;;;;;;5011454;28;19928;-75
2023/01/10 16:17:19;;;;;;;;;;;;;;;;;;5005912;28;19913;-76
2023/01/10 16:20:05;;;;;;;;;;;;;;;;;;5004071;28;19917;-78
2023/01/10 16:22:52;;;;;;;;;;;;;;;;;;5003238;28;20292;-75
2023/01/10 16:25:38;;;;;;;;;;;;;;;;;;5005362;28;19920;-74
2023/01/10 16:28:27;;;;;;;;;;;;;;;;;;4995735;28;20383;-76
2023/01/10 16:31:14;;;;;;;;;;;;;;;;;;5015676;28;19925;-76
2023/01/10 16:34:00;;;;;;;;;;;;;;;;;;5006209;28;19918;-75
2023/01/10 16:36:47;;;;;;;;;;;;;;;;;;5005386;28;19913;-75
2023/01/10 16:39:33;;;;;;;;;;;;;;;;;;5003167;28;19920;-75
2023/01/10 16:45:26;;;;;;;;;;;;;;;;;;5005963;28;19922;-76
2023/01/10 16:48:13;;;;;;;;;;;;;;;;;;5006881;28;19914;-78
2023/01/10 16:50:59;;;;;;;;;;;;;;;;;;4993250;28;19917;-76
2023/01/10 16:53:46;;;;;;;;;;;;;;;;;;5000697;28;19925;-75
2023/01/10 16:56:33;;;;;;;;;;;;;;;;;;5002878;28;19917;-76
2023/01/10 16:59:19;;;;;;;;;;;;;;;;;;5003594;28;19917;-77
2023/01/10 17:02:06;;;;;;;;;;;;;;;;;;5003745;28;19928;-78
2023/01/10 17:04:53;;;;;;;;;;;;;;;;;;5005482;28;19918;-76
2023/01/10 17:07:39;;;;;;;;;;;;;;;;;;4996123;28;19914;-76
2023/01/10 17:10:26;;;;;;;;;;;;;;;;;;5007943;28;19918;-76
2023/01/10 17:13:12;;;;;;;;;;;;;;;;;;5001602;28;19913;-74
2023/01/10 17:15:59;;;;;;;;;;;;;;;;;;5003893;28;20028;-80
2023/01/10 17:18:45;;;;;;;;;;;;;;;;;;5001086;28;19940;-80
2023/01/10 17:21:32;;;;;;;;;;;;;;;;;;5004110;28;19914;-80
2023/01/10 17:24:18;;;;;;;;;;;;;;;;;;5004690;28;20328;-79
2023/01/10 17:27:05;;;;;;;;;;;;;;;;;;5012277;28;19913;-80
2023/01/10 17:29:51;;;;;;;;;;;;;;;;;;5002936;28;20067;-80
2023/01/10 17:32:38;;;;;;;;;;;;;;;;;;5010011;28;19914;-81
2023/01/10 17:35:31;;;;;;;;;;;;;;;;;;5003794;28;19944;-80
2023/01/10 17:38:17;;;;;;;;;;;;;;;;;;5003635;28;20478;-80
2023/01/10 17:41:05;;;;;;;;;;;;;;;;;;5010299;28;19920;-80
2023/01/10 17:43:51;;;;;;;;;;;;;;;;;;5026694;28;19915;-80
2023/01/10 17:46:38;;;;;;;;;;;;;;;;;;5019435;28;20465;-79
2023/01/10 17:49:25;;;;;;;;;;;;;;;;;;5025046;28;19909;-81
2023/01/10 17:52:11;;;;;;;;;;;;;;;;;;5014883;28;19921;-80
2023/01/10 17:54:58;;;;;;;;;;;;;;;;;;4995986;28;20384;-80
2023/01/10 17:57:44;;;;;;;;;;;;;;;;;;5012253;28;19917;-81
2023/01/10 18:00:31;;;;;;;;;;;;;;;;;;5002757;28;19914;-81
2023/01/10 18:03:17;;;;;;;;;;;;;;;;;;5006775;28;19913;-79
2023/01/10 18:06:04;;;;;;;;;;;;;;;;;;5010298;28;19913;-81
2023/01/10 18:08:50;;;;;;;;;;;;;;;;;;5004502;28;19924;-79
2023/01/10 18:11:37;;;;;;;;;;;;;;;;;;5007154;28;19920;-80
2023/01/10 18:14:36;;;;;;;;;;;;;;;;;;5010371;28;20296;-78
2023/01/10 18:17:22;;;;;;;;;;;;;;;;;;5001761;28;19917;-79
2023/01/10 18:20:09;;;;;;;;;;;;;;;;;;5017430;28;19909;-77
2023/01/10 18:26:00;;;;;;;;;;;;;;;;;;5007460;28;19923;-84
2023/01/10 18:28:47;;;;;;;;;;;;;;;;;;4993218;28;19928;-82
2023/01/10 18:31:34;;;;;;;;;;;;;;;;;;5004199;28;19924;-81
2023/01/10 18:34:20;;;;;;;;;;;;;;;;;;5002798;28;19929;-82
2023/01/10 18:37:07;;;;;;;;;;;;;;;;;;5003539;28;20405;-82
2023/01/10 18:39:53;;;;;;;;;;;;;;;;;;5004871;28;19913;-82
2023/01/10 18:42:40;;;;;;;;;;;;;;;;;;5001593;28;19913;-82
2023/01/10 18:45:26;;;;;;;;;;;;;;;;;;5003480;28;19920;-82
2023/01/10 18:48:15;;;;;;;;;;;;;;;;;;4988766;28;19972;-82
2023/01/10 18:51:01;;;;;;;;;;;;;;;;;;5007450;28;19914;-82
2023/01/10 18:53:48;;;;;;;;;;;;;;;;;;5003212;28;19932;-86
2023/01/10 18:56:34;;;;;;;;;;;;;;;;;;5002001;28;19936;-82
2023/01/10 18:59:21;;;;;;;;;;;;;;;;;;5004334;28;20404;-82
2023/01/10 19:02:07;;;;;;;;;;;;;;;;;;4999390;28;19920;-82
2023/01/10 19:04:54;;;;;;;;;;;;;;;;;;5003190;28;19924;-81
2023/01/10 19:07:40;;;;;;;;;;;;;;;;;;5000111;28;19936;-81
2023/01/10 19:10:27;;;;;;;;;;;;;;;;;;5001671;28;19923;-81
2023/01/10 19:13:13;;;;;;;;;;;;;;;;;;4997523;28;19914;-82
2023/01/10 19:15:59;;;;;;;;;;;;;;;;;;5000904;28;20341;-86
2023/01/10 19:18:46;;;;;;;;;;;;;;;;;;4994140;28;19918;-81
2023/01/10 19:21:33;;;;;;;;;;;;;;;;;;4997762;28;19925;-81
2023/01/10 19:24:19;;;;;;;;;;;;;;;;;;4999784;28;19910;-81
2023/01/10 19:27:06;;;;;;;;;;;;;;;;;;5002188;28;20293;-82
2023/01/10 19:29:52;;;;;;;;;;;;;;;;;;4997812;28;19924;-81